createdAt,value
2022-10-19T00:01:55.552Z,78.77
2022-10-19T00:04:29.026Z,78.78
2022-10-19T00:07:00.862Z,78.75
2022-10-19T00:09:32.756Z,78.77
2022-10-19T00:12:04.929Z,78.69
2022-10-19T00:14:36.674Z,78.89
2022-10-19T00:17:09.201Z,78.90
2022-10-19T00:19:41.059Z,78.82
2022-10-19T00:22:14.065Z,78.96
2022-10-19T00:24:46.383Z,79.04
2022-10-19T00:27:18.558Z,78.67
2022-10-19T00:29:50.400Z,78.64
2022-10-19T00:32:22.404Z,78.87
2022-10-19T00:34:55.129Z,78.79
2022-10-19T00:37:27.313Z,78.60
2022-10-19T00:39:59.185Z,78.52
2022-10-19T00:42:31.320Z,78.45
2022-10-19T00:45:09.549Z,78.40
2022-10-19T00:47:42.782Z,78.14
2022-10-19T00:50:15.149Z,78.19
2022-10-19T00:52:46.990Z,77.79
2022-10-19T00:55:18.908Z,77.50
2022-10-19T01:00:27.931Z,77.03
2022-10-19T01:03:00.178Z,76.71
2022-10-19T01:05:34.080Z,76.69
2022-10-19T01:08:07.880Z,76.47
2022-10-19T01:10:59.143Z,76.24
2022-10-19T01:14:16.166Z,76.46
2022-10-19T01:16:58.292Z,76.41
2022-10-19T01:20:17.849Z,76.54
2022-10-19T01:23:31.684Z,76.54
2022-10-19T01:26:30.965Z,76.61
2022-10-19T01:29:11.737Z,76.57
2022-10-19T01:32:00.990Z,76.83
2022-10-19T01:34:37.572Z,76.60
2022-10-19T01:37:22.966Z,76.52
2022-10-19T01:40:40.781Z,76.65
2022-10-19T01:43:25.951Z,76.62
2022-10-19T01:46:07.906Z,76.56
2022-10-19T01:48:43.665Z,76.29
2022-10-19T01:51:23.216Z,76.10
2022-10-19T01:53:57.863Z,76.20
2022-10-19T01:56:31.067Z,76.03
2022-10-19T01:59:05.209Z,75.92
2022-10-19T02:01:41.055Z,75.74
2022-10-19T02:04:16.290Z,75.69
2022-10-19T02:06:50.188Z,75.58
2022-10-19T02:09:22.294Z,75.53
2022-10-19T02:12:09.033Z,75.40
2022-10-19T02:14:44.797Z,74.83
2022-10-19T02:17:26.616Z,74.22
2022-10-19T02:19:59.249Z,74.45
2022-10-19T02:22:32.141Z,74.37
2022-10-19T02:25:04.984Z,74.11
2022-10-19T02:27:38.716Z,74.05
2022-10-19T02:30:13.188Z,73.74
2022-10-19T02:32:45.484Z,73.75
2022-10-19T02:35:17.754Z,73.51
2022-10-19T02:37:49.725Z,73.21
2022-10-19T02:40:22.126Z,73.03
2022-10-19T02:43:01.304Z,72.16
2022-10-19T02:45:45.459Z,71.41
2022-10-19T02:48:23.580Z,71.38
2022-10-19T02:50:55.780Z,71.85
2022-10-19T02:53:28.422Z,71.54
2022-10-19T02:56:00.314Z,71.40
2022-10-19T02:58:33.102Z,71.06
2022-10-19T03:01:05.150Z,70.87
2022-10-19T03:03:37.072Z,70.70
2022-10-19T03:06:09.058Z,70.43
2022-10-19T03:08:40.928Z,70.21
2022-10-19T03:11:12.970Z,69.90
2022-10-19T03:13:44.955Z,69.33
2022-10-19T03:16:16.911Z,69.32
2022-10-19T03:18:49.913Z,69.10
2022-10-19T03:21:21.891Z,68.88
2022-10-19T03:23:54.500Z,68.52
2022-10-19T03:26:26.700Z,68.36
2022-10-19T03:28:58.744Z,68.20
2022-10-19T03:31:30.681Z,68.02
2022-10-19T03:34:02.736Z,68.00
2022-10-19T03:36:36.765Z,67.74
2022-10-19T03:39:12.278Z,67.88
2022-10-19T03:41:44.704Z,67.79
2022-10-19T03:44:16.722Z,67.70
2022-10-19T03:46:48.533Z,67.78
2022-10-19T03:49:20.778Z,67.78
2022-10-19T03:51:52.583Z,67.73
2022-10-19T03:54:27.273Z,67.80
2022-10-19T03:56:59.449Z,67.90
2022-10-19T03:59:31.287Z,67.81
2022-10-19T04:02:03.561Z,67.92
2022-10-19T04:04:35.510Z,68.02
2022-10-19T04:07:07.482Z,67.96
2022-10-19T04:09:39.345Z,67.97
2022-10-19T04:12:11.093Z,67.84
2022-10-19T04:14:56.845Z,68.10
2022-10-19T04:17:29.656Z,68.04
2022-10-19T04:20:01.485Z,67.96
2022-10-19T04:22:33.351Z,68.06
2022-10-19T04:25:05.779Z,67.72
2022-10-19T04:27:38.499Z,68.01
2022-10-19T04:30:10.704Z,67.90
2022-10-19T04:32:42.713Z,67.90
2022-10-19T04:35:14.670Z,67.91
2022-10-19T04:37:46.967Z,68.14
2022-10-19T04:40:18.848Z,68.16
2022-10-19T04:42:51.007Z,68.12
2022-10-19T04:45:22.941Z,68.01
2022-10-19T04:47:56.490Z,67.97
2022-10-19T04:50:28.275Z,67.94
2022-10-19T04:53:00.915Z,68.02
2022-10-19T04:55:32.803Z,67.95
2022-10-19T04:58:04.671Z,68.04
2022-10-19T05:00:38.197Z,67.93
2022-10-19T05:03:10.131Z,68.04
2022-10-19T05:05:41.942Z,68.04
2022-10-19T05:08:13.794Z,68.05
2022-10-19T05:10:47.663Z,68.12
2022-10-19T05:13:19.774Z,68.04
2022-10-19T05:15:58.556Z,68.10
2022-10-19T05:18:30.518Z,68.26
2022-10-19T05:21:06.221Z,68.13
2022-10-19T05:23:38.904Z,68.23
2022-10-19T05:26:13.750Z,68.00
2022-10-19T05:28:56.986Z,68.22
2022-10-19T05:31:31.773Z,68.04
2022-10-19T05:34:04.132Z,68.26
2022-10-19T05:36:38.721Z,68.12
2022-10-19T05:39:15.779Z,68.18
2022-10-19T05:41:47.907Z,68.19
2022-10-19T05:44:22.544Z,68.19
2022-10-19T05:46:54.558Z,68.05
2022-10-19T05:49:26.751Z,68.18
2022-10-19T05:51:58.649Z,68.18
2022-10-19T05:54:30.763Z,68.23
2022-10-19T05:57:02.785Z,68.15
2022-10-19T05:59:34.775Z,68.13
2022-10-19T06:02:06.903Z,67.92
2022-10-19T06:04:38.786Z,68.16
2022-10-19T06:07:10.692Z,68.23
2022-10-19T06:09:43.134Z,68.20
2022-10-19T06:12:16.308Z,68.19
2022-10-19T06:14:50.765Z,68.10
2022-10-19T06:17:22.779Z,68.09
2022-10-19T06:19:54.874Z,68.04
2022-10-19T06:22:26.719Z,68.24
2022-10-19T06:24:58.542Z,68.17
2022-10-19T06:27:32.268Z,68.44
2022-10-19T06:30:04.953Z,68.27
2022-10-19T06:32:36.867Z,68.19
2022-10-19T06:35:08.778Z,68.21
2022-10-19T06:37:40.714Z,68.25
2022-10-19T06:40:12.852Z,68.38
2022-10-19T06:42:44.918Z,68.37
2022-10-19T06:45:17.106Z,68.32
2022-10-19T06:47:49.052Z,68.38
2022-10-19T06:50:20.967Z,68.44
2022-10-19T06:52:52.763Z,68.35
2022-10-19T06:55:24.862Z,68.50
2022-10-19T06:57:59.417Z,68.56
2022-10-19T07:00:31.545Z,68.69
2022-10-19T07:03:03.653Z,68.52
2022-10-19T07:05:36.006Z,68.65
2022-10-19T07:08:08.449Z,68.49
2022-10-19T07:10:40.416Z,68.62
2022-10-19T07:13:12.320Z,68.59
2022-10-19T07:15:44.350Z,68.41
2022-10-19T07:18:16.335Z,68.44
2022-10-19T07:20:58.261Z,68.60
2022-10-19T07:23:31.421Z,68.62
2022-10-19T07:26:06.173Z,68.57
2022-10-19T07:28:43.146Z,68.71
2022-10-19T07:31:20.316Z,68.95
2022-10-19T07:34:00.093Z,68.99
2022-10-19T07:36:33.706Z,69.09
2022-10-19T07:39:07.600Z,69.05
2022-10-19T07:41:39.742Z,69.08
2022-10-19T07:44:15.547Z,68.86
2022-10-19T07:46:47.894Z,69.05
2022-10-19T07:49:20.826Z,69.11
2022-10-19T07:51:54.250Z,68.93
2022-10-19T07:54:27.464Z,68.93
2022-10-19T07:56:59.451Z,68.97
2022-10-19T07:59:31.369Z,68.86
2022-10-19T08:02:04.901Z,68.74
2022-10-19T08:07:33.771Z,68.26
2022-10-19T08:10:06.355Z,68.27
2022-10-19T08:12:38.508Z,67.83
2022-10-19T08:15:10.698Z,67.64
2022-10-19T08:17:42.843Z,67.42
2022-10-19T08:20:14.909Z,67.34
2022-10-19T08:22:47.291Z,67.05
2022-10-19T08:25:37.721Z,66.93
2022-10-19T08:28:10.040Z,66.65
2022-10-19T08:30:41.984Z,66.55
2022-10-19T08:33:15.282Z,66.48
2022-10-19T08:35:47.155Z,66.24
2022-10-19T08:38:19.112Z,66.15
2022-10-19T08:40:51.030Z,66.05
2022-10-19T08:43:32.907Z,65.88
2022-10-19T08:46:30.003Z,65.63
2022-10-19T08:49:03.081Z,65.95
2022-10-19T08:51:38.225Z,66.11
2022-10-19T08:54:16.356Z,65.70
2022-10-19T08:56:59.433Z,65.58
2022-10-19T09:00:06.938Z,64.73
2022-10-19T09:02:44.315Z,65.66
2022-10-19T09:05:53.051Z,64.92
2022-10-19T09:08:26.087Z,65.28
2022-10-19T09:10:58.957Z,65.31
2022-10-19T09:14:03.829Z,64.78
2022-10-19T09:16:36.011Z,65.14
2022-10-19T09:19:34.017Z,64.43
2022-10-19T09:22:08.555Z,64.89
2022-10-19T09:24:44.124Z,64.69
2022-10-19T09:27:22.521Z,64.20
2022-10-19T09:29:56.928Z,64.27
2022-10-19T09:32:35.720Z,63.72
2022-10-19T09:35:18.688Z,63.27
2022-10-19T09:37:54.414Z,63.64
2022-10-19T09:40:29.634Z,62.94
2022-10-19T09:43:19.417Z,62.28
2022-10-19T09:45:55.609Z,62.23
2022-10-19T09:48:35.989Z,61.44
2022-10-19T09:51:14.343Z,61.41
2022-10-19T09:53:49.172Z,61.28
2022-10-19T09:56:23.273Z,61.54
2022-10-19T09:58:57.588Z,61.21
2022-10-19T10:01:43.231Z,60.60
2022-10-19T10:04:17.860Z,60.88
2022-10-19T10:06:50.040Z,61.77
2022-10-19T10:09:27.314Z,61.77
2022-10-19T10:12:00.301Z,61.97
2022-10-19T10:14:33.736Z,61.76
2022-10-19T10:17:22.862Z,62.29
2022-10-19T10:20:00.631Z,61.59
2022-10-19T10:22:37.098Z,61.26
2022-10-19T10:25:16.710Z,61.28
2022-10-19T10:28:03.310Z,61.42
2022-10-19T10:30:36.867Z,61.91
2022-10-19T10:33:27.081Z,61.61
2022-10-19T10:36:08.815Z,61.70
2022-10-19T10:38:46.866Z,61.47
2022-10-19T10:41:28.869Z,61.61
2022-10-19T10:44:04.959Z,61.72
2022-10-19T10:46:46.231Z,61.77
2022-10-19T10:49:26.820Z,61.22
2022-10-19T10:52:05.766Z,61.73
2022-10-19T10:54:38.442Z,61.53
2022-10-19T10:57:13.897Z,61.50
2022-10-19T10:59:59.336Z,60.91
2022-10-19T11:02:59.883Z,60.25
2022-10-19T11:05:34.939Z,60.66
2022-10-19T11:08:12.862Z,60.29
2022-10-19T11:10:52.811Z,59.97
2022-10-19T11:13:34.294Z,58.92
2022-10-19T11:16:15.167Z,58.69
2022-10-19T11:19:00.794Z,59.15
2022-10-19T11:22:02.574Z,56.85
2022-10-19T11:25:05.346Z,56.77
2022-10-19T11:27:47.811Z,56.21
2022-10-19T11:30:23.930Z,56.27
2022-10-19T11:33:15.792Z,53.96
2022-10-19T11:35:55.558Z,53.39
2022-10-19T11:38:30.535Z,53.34
2022-10-19T11:41:18.577Z,51.78
2022-10-19T11:44:13.814Z,50.30
2022-10-19T11:46:52.805Z,51.07
2022-10-19T11:49:43.467Z,51.62
2022-10-19T11:52:27.202Z,48.77
2022-10-19T11:55:12.441Z,48.28
2022-10-19T11:57:58.139Z,46.97
2022-10-19T12:00:39.035Z,48.01
2022-10-19T12:03:24.102Z,45.98
2022-10-19T12:06:18.068Z,46.36
2022-10-19T12:09:28.123Z,46.78
2022-10-19T12:12:09.123Z,48.01
2022-10-19T12:14:42.023Z,48.67
2022-10-19T12:17:18.044Z,46.64
2022-10-19T12:19:54.259Z,46.15
2022-10-19T12:22:30.465Z,46.09
2022-10-19T12:25:02.471Z,46.62
2022-10-19T12:27:39.179Z,46.52
2022-10-19T12:30:16.283Z,45.26
2022-10-19T12:33:12.901Z,41.25
2022-10-19T12:35:55.097Z,41.17
2022-10-19T12:38:47.141Z,42.01
2022-10-19T12:41:52.579Z,36.75
2022-10-19T12:44:54.945Z,36.75
2022-10-19T12:47:29.971Z,38.93
2022-10-19T12:50:02.118Z,37.84
2022-10-19T12:52:34.756Z,37.53
2022-10-19T12:55:35.147Z,33.17
2022-10-19T12:58:20.168Z,34.28
2022-10-19T13:01:03.837Z,36.17
2022-10-19T13:03:46.081Z,37.71
2022-10-19T13:06:23.797Z,38.23
2022-10-19T13:09:07.111Z,39.01
2022-10-19T13:12:21.445Z,40.25
2022-10-19T13:15:02.164Z,41.24
2022-10-19T13:17:34.584Z,42.12
2022-10-19T13:20:15.747Z,42.42
2022-10-19T13:23:00.614Z,42.81
2022-10-19T13:25:36.495Z,43.10
2022-10-19T13:28:11.237Z,43.51
2022-10-19T13:30:43.155Z,43.93
2022-10-19T13:33:33.003Z,44.38
2022-10-19T13:36:05.140Z,44.78
2022-10-19T13:38:42.618Z,45.35
2022-10-19T13:41:14.602Z,45.29
2022-10-19T13:43:58.294Z,46.68
2022-10-19T13:46:30.260Z,46.90
2022-10-19T13:49:05.204Z,46.93
2022-10-19T13:52:21.850Z,49.10
2022-10-19T13:55:02.770Z,48.70
2022-10-19T13:58:00.580Z,48.60
2022-10-19T14:00:37.211Z,48.95
2022-10-19T14:03:46.021Z,49.56
2022-10-19T14:06:28.648Z,49.48
2022-10-19T14:09:25.284Z,50.53
2022-10-19T14:12:24.248Z,50.24
2022-10-19T14:14:56.177Z,49.69
2022-10-19T14:17:34.261Z,50.33
2022-10-19T14:20:25.751Z,50.81
2022-10-19T14:22:58.937Z,50.43
2022-10-19T14:25:32.861Z,49.97
2022-10-19T14:28:06.789Z,49.75
2022-10-19T14:30:39.290Z,49.87
2022-10-19T14:33:14.494Z,49.63
2022-10-19T14:35:49.580Z,50.28
2022-10-19T14:38:35.187Z,50.14
2022-10-19T14:41:37.909Z,49.88
2022-10-19T14:44:31.808Z,50.74
2022-10-19T14:47:15.983Z,50.42
2022-10-19T14:49:48.977Z,50.48
2022-10-19T14:55:12.730Z,50.79
2022-10-19T14:57:49.092Z,50.72
2022-10-19T15:00:22.469Z,50.78
2022-10-19T15:03:05.308Z,50.05
2022-10-19T15:05:42.169Z,50.55
2022-10-19T15:08:24.888Z,50.85
2022-10-19T15:10:57.382Z,51.11
2022-10-19T15:13:33.987Z,51.39
2022-10-19T15:16:06.211Z,51.54
2022-10-19T15:18:49.577Z,51.90
2022-10-19T15:21:21.973Z,51.86
2022-10-19T15:23:54.180Z,51.78
2022-10-19T15:26:26.383Z,51.97
2022-10-19T15:29:20.440Z,52.95
2022-10-19T15:31:56.746Z,52.61
2022-10-19T15:34:29.773Z,52.97
2022-10-19T15:37:03.427Z,53.15
2022-10-19T15:39:42.086Z,53.31
2022-10-19T15:42:41.079Z,53.83
2022-10-19T15:45:35.596Z,54.54
2022-10-19T15:48:10.492Z,53.51
2022-10-19T15:50:50.337Z,53.07
2022-10-19T15:53:22.563Z,52.69
2022-10-19T15:55:54.760Z,52.41
2022-10-19T15:58:26.789Z,52.22
2022-10-19T16:00:58.854Z,51.94
2022-10-19T16:03:30.966Z,51.81
2022-10-19T16:06:02.871Z,51.83
2022-10-19T16:08:35.107Z,51.92
2022-10-19T16:11:13.485Z,51.41
2022-10-19T16:13:45.990Z,51.79
2022-10-19T16:16:35.844Z,51.09
2022-10-19T16:19:09.101Z,51.82
2022-10-19T16:21:41.068Z,52.21
2022-10-19T16:24:13.084Z,51.97
2022-10-19T16:26:45.039Z,52.03
2022-10-19T16:29:17.042Z,52.23
2022-10-19T16:31:49.097Z,52.44
2022-10-19T16:34:21.204Z,52.48
2022-10-19T16:36:53.982Z,52.39
2022-10-19T16:39:25.954Z,52.26
2022-10-19T16:41:57.920Z,52.35
2022-10-19T16:44:29.888Z,52.54
2022-10-19T16:47:02.080Z,52.43
2022-10-19T16:49:34.092Z,52.79
2022-10-19T16:52:06.224Z,52.93
2022-10-19T16:54:38.142Z,52.96
2022-10-19T16:57:10.222Z,53.11
2022-10-19T16:59:42.276Z,52.61
2022-10-19T17:02:14.564Z,52.84
2022-10-19T17:04:46.742Z,52.93
2022-10-19T17:07:19.145Z,52.82
2022-10-19T17:09:54.676Z,52.96
2022-10-19T17:12:27.260Z,53.03
2022-10-19T17:15:23.602Z,53.28
2022-10-19T17:17:51.654Z,53.31
2022-10-19T17:20:23.867Z,53.45
2022-10-19T17:22:56.006Z,53.63
2022-10-19T17:25:27.849Z,53.54
2022-10-19T17:27:59.929Z,53.65
2022-10-19T17:30:32.001Z,53.82
2022-10-19T17:33:04.098Z,53.72
2022-10-19T17:35:35.939Z,54.00
2022-10-19T17:38:07.893Z,54.03
2022-10-19T17:40:39.960Z,54.18
2022-10-19T17:43:12.133Z,54.39
2022-10-19T17:48:20.869Z,54.96
2022-10-19T17:51:00.545Z,55.42
2022-10-19T17:53:33.393Z,55.36
2022-10-19T17:56:07.563Z,55.31
2022-10-19T17:58:40.127Z,55.39
2022-10-19T18:01:12.579Z,55.66
2022-10-19T18:03:44.716Z,55.88
2022-10-19T18:06:23.995Z,56.11
2022-10-19T18:08:56.687Z,56.16
2022-10-19T18:11:31.051Z,56.58
2022-10-19T18:14:04.280Z,56.55
2022-10-19T18:16:46.419Z,57.38
2022-10-19T18:19:19.071Z,56.73
2022-10-19T18:21:52.607Z,56.99
2022-10-19T18:24:24.586Z,56.83
2022-10-19T18:26:56.565Z,57.14
2022-10-19T18:29:28.714Z,56.71
2022-10-19T18:32:01.517Z,57.10
2022-10-19T18:34:33.551Z,57.09
2022-10-19T18:37:07.215Z,57.05
2022-10-19T18:39:39.557Z,56.97
2022-10-19T18:42:12.937Z,57.08
2022-10-19T18:44:44.984Z,57.17
2022-10-19T18:47:17.179Z,57.13
2022-10-19T18:49:49.222Z,57.19
2022-10-19T18:52:21.348Z,57.23
2022-10-19T18:54:53.394Z,57.36
2022-10-19T18:57:28.324Z,57.45
2022-10-19T19:00:04.352Z,57.41
2022-10-19T19:02:46.605Z,57.69
2022-10-19T19:05:19.563Z,57.90
2022-10-19T19:07:51.694Z,58.03
2022-10-19T19:10:23.929Z,58.14
2022-10-19T19:12:55.962Z,58.41
2022-10-19T19:15:28.035Z,58.55
2022-10-19T19:17:59.942Z,58.53
2022-10-19T19:20:31.978Z,58.86
2022-10-19T19:23:04.674Z,58.97
2022-10-19T19:25:39.928Z,59.41
2022-10-19T19:28:12.084Z,59.07
2022-10-19T19:30:45.034Z,59.36
2022-10-19T19:33:16.895Z,59.59
2022-10-19T19:35:49.110Z,59.69
2022-10-19T19:38:20.932Z,59.64
2022-10-19T19:40:53.124Z,60.02
2022-10-19T19:43:25.527Z,60.40
2022-10-19T19:46:04.770Z,60.85
2022-10-19T19:48:42.026Z,60.35
2022-10-19T19:51:19.666Z,61.01
2022-10-19T19:53:52.160Z,60.74
2022-10-19T19:56:24.556Z,60.82
2022-10-19T19:58:58.728Z,61.08
2022-10-19T20:01:31.143Z,60.94
2022-10-19T20:06:40.778Z,61.17
2022-10-19T20:09:12.860Z,61.28
2022-10-19T20:11:45.042Z,61.41
2022-10-19T20:14:19.131Z,61.57
2022-10-19T20:16:50.984Z,61.71
2022-10-19T20:19:22.981Z,61.81
2022-10-19T20:21:56.311Z,61.83
2022-10-19T20:24:28.319Z,62.08
2022-10-19T20:27:00.361Z,62.22
2022-10-19T20:29:32.236Z,62.36
2022-10-19T20:32:04.238Z,62.59
2022-10-19T20:34:36.663Z,62.78
2022-10-19T20:37:09.300Z,62.82
2022-10-19T20:39:41.220Z,62.98
2022-10-19T20:42:14.147Z,63.25
2022-10-19T20:44:46.219Z,63.47
2022-10-19T20:47:18.085Z,63.24
2022-10-19T20:49:49.987Z,63.77
2022-10-19T20:52:22.096Z,63.70
2022-10-19T20:54:54.122Z,63.80
2022-10-19T20:57:26.083Z,63.63
2022-10-19T20:59:57.948Z,64.03
2022-10-19T21:02:30.182Z,64.10
2022-10-19T21:05:02.436Z,64.43
2022-10-19T21:07:34.346Z,64.24
2022-10-19T21:10:06.539Z,64.89
2022-10-19T21:12:38.647Z,65.17
2022-10-19T21:15:10.918Z,65.36
2022-10-19T21:17:43.098Z,65.54
2022-10-19T21:20:15.015Z,65.70
2022-10-19T21:22:46.860Z,65.71
2022-10-19T21:25:18.819Z,65.92
2022-10-19T21:27:51.943Z,66.46
2022-10-19T21:30:23.993Z,66.21
2022-10-19T21:32:55.960Z,66.09
2022-10-19T21:35:27.948Z,66.62
2022-10-19T21:38:00.108Z,66.42
2022-10-19T21:40:35.416Z,66.86
2022-10-19T21:43:11.065Z,66.90
2022-10-19T21:45:43.084Z,66.88
2022-10-19T21:48:15.091Z,66.91
2022-10-19T21:50:47.482Z,67.07
2022-10-19T21:53:20.344Z,66.98
2022-10-19T21:55:53.485Z,67.31
2022-10-19T21:58:25.550Z,67.33
2022-10-19T22:01:04.846Z,68.01
2022-10-19T22:03:37.085Z,67.75
2022-10-19T22:06:09.605Z,67.53
2022-10-19T22:08:47.604Z,68.38
2022-10-19T22:11:20.066Z,68.11
2022-10-19T22:13:56.245Z,68.49
2022-10-19T22:16:29.416Z,68.46
2022-10-19T22:19:01.328Z,68.27
2022-10-19T22:21:34.341Z,68.27
2022-10-19T22:24:09.200Z,68.47
2022-10-19T22:26:50.588Z,68.67
2022-10-19T22:29:22.442Z,68.43
2022-10-19T22:31:54.324Z,68.60
2022-10-19T22:34:26.306Z,68.82
2022-10-19T22:36:59.010Z,68.79
2022-10-19T22:39:31.226Z,68.62
2022-10-19T22:42:03.182Z,68.59
2022-10-19T22:44:35.317Z,68.70
2022-10-19T22:47:07.145Z,69.01
2022-10-19T22:49:39.050Z,69.34
2022-10-19T22:52:10.920Z,69.27
2022-10-19T22:54:43.246Z,69.30
2022-10-19T22:57:15.186Z,69.64
2022-10-19T22:59:47.213Z,69.64
2022-10-19T23:02:19.147Z,69.69
2022-10-19T23:04:51.042Z,70.00
2022-10-19T23:07:22.888Z,69.92
2022-10-19T23:09:54.759Z,70.22
2022-10-19T23:12:26.567Z,70.17
2022-10-19T23:14:58.768Z,70.45
2022-10-19T23:17:30.570Z,70.55
2022-10-19T23:20:02.601Z,70.54
2022-10-19T23:22:34.434Z,70.71
2022-10-19T23:25:06.907Z,70.87
2022-10-19T23:27:39.182Z,70.88
2022-10-19T23:30:11.443Z,70.74
2022-10-19T23:32:43.258Z,71.17
2022-10-19T23:35:15.185Z,71.21
2022-10-19T23:37:47.140Z,71.38
2022-10-19T23:40:19.027Z,71.22
2022-10-19T23:42:50.897Z,71.28
2022-10-19T23:45:22.745Z,71.36
2022-10-19T23:47:54.657Z,71.52
2022-10-19T23:50:26.467Z,71.47
2022-10-19T23:52:58.387Z,71.58
2022-10-19T23:55:30.252Z,71.43
2022-10-19T23:58:02.440Z,71.34
